createdAt,value
2022-10-30T00:00:47.234Z,96793.09
2022-10-30T00:03:15.373Z,96793.22
2022-10-30T00:05:46.374Z,96796.22
2022-10-30T00:08:15.296Z,96787.84
2022-10-30T00:10:42.247Z,96795.81
2022-10-30T00:13:09.415Z,96793.44
2022-10-30T00:15:36.168Z,96790.25
2022-10-30T00:18:03.022Z,96782.44
2022-10-30T00:20:29.642Z,96789.41
2022-10-30T00:22:56.668Z,96779.81
2022-10-30T00:25:23.829Z,96779.13
2022-10-30T00:27:50.498Z,96780.81
2022-10-30T00:30:18.935Z,96779.63
2022-10-30T00:32:45.682Z,96778.53
2022-10-30T00:35:12.465Z,96778.41
2022-10-30T00:37:39.352Z,96775.53
2022-10-30T00:40:06.946Z,96774.72
2022-10-30T00:42:33.988Z,96776.81
2022-10-30T00:45:00.835Z,96773.13
2022-10-30T00:47:38.098Z,96765.41
2022-10-30T00:53:19.605Z,96770.19
2022-10-30T00:55:51.479Z,96766.63
2022-10-30T00:58:24.554Z,96761.44
2022-10-30T01:00:55.004Z,96764.34
2022-10-30T01:03:23.212Z,96766.72
2022-10-30T01:05:53.765Z,96760.63
2022-10-30T01:08:20.652Z,96755.81
2022-10-30T01:10:48.701Z,96758.53
2022-10-30T01:13:17.849Z,96758.34
2022-10-30T01:16:17.847Z,96751.25
2022-10-30T01:18:53.403Z,96751.25
2022-10-30T01:21:33.674Z,96741.53
2022-10-30T01:24:19.730Z,96744.44
2022-10-30T01:27:00.403Z,96739.84
2022-10-30T01:29:35.388Z,96735.84
2022-10-30T01:32:14.143Z,96739.25
2022-10-30T01:35:02.391Z,96737.47
2022-10-30T01:37:36.634Z,96737.84
2022-10-30T01:40:10.452Z,96725.84
2022-10-30T01:42:45.876Z,96734.22
2022-10-30T01:45:26.718Z,96728.34
2022-10-30T01:48:08.558Z,96725.53
2022-10-30T01:50:45.477Z,96723.44
2022-10-30T01:53:30.063Z,96716.88
2022-10-30T01:56:18.793Z,96712.88
2022-10-30T01:58:58.296Z,96709.47
2022-10-30T02:01:26.628Z,96708.38
2022-10-30T02:03:53.423Z,96709.28
2022-10-30T02:06:20.527Z,96712.28
2022-10-30T02:08:47.124Z,96710.94
2022-10-30T02:11:14.568Z,96705.53
2022-10-30T02:13:41.367Z,96707.66
2022-10-30T02:16:08.723Z,96714.97
2022-10-30T02:18:35.362Z,96711.88
2022-10-30T02:21:02.253Z,96708.69
2022-10-30T02:23:28.900Z,96703.88
2022-10-30T02:25:55.497Z,96703.56
2022-10-30T02:28:22.114Z,96702.47
2022-10-30T02:30:48.727Z,96700.34
2022-10-30T02:33:15.507Z,96697.84
2022-10-30T02:35:42.137Z,96700.34
2022-10-30T02:38:08.754Z,96698.84
2022-10-30T02:40:35.379Z,96699.34
2022-10-30T02:43:02.044Z,96692.88
2022-10-30T02:45:29.313Z,96698.25
2022-10-30T02:47:56.530Z,96688.16
2022-10-30T02:50:23.389Z,96686.88
2022-10-30T02:52:50.014Z,96696.66
2022-10-30T02:55:16.761Z,96696.88
2022-10-30T02:57:43.503Z,96692.75
2022-10-30T03:00:11.526Z,96699.75
2022-10-30T03:02:38.185Z,96697.03
2022-10-30T03:05:05.053Z,96700.06
2022-10-30T03:07:31.697Z,96703.84
2022-10-30T03:09:58.297Z,96705.84
2022-10-30T03:12:24.970Z,96708.94
2022-10-30T03:14:51.602Z,96706.03
2022-10-30T03:17:18.247Z,96711.13
2022-10-30T03:19:44.914Z,96714.56
2022-10-30T03:22:11.550Z,96712.38
2022-10-30T03:24:38.325Z,96719.97
2022-10-30T03:27:05.044Z,96721.56
2022-10-30T03:29:31.747Z,96719.78
2022-10-30T03:31:58.347Z,96719.28
2022-10-30T03:34:24.969Z,96725.16
2022-10-30T03:36:51.562Z,96723.34
2022-10-30T03:39:18.191Z,96725.69
2022-10-30T03:41:45.151Z,96729.09
2022-10-30T03:44:11.788Z,96727.56
2022-10-30T03:46:38.401Z,96724.50
2022-10-30T03:49:05.029Z,96726.41
2022-10-30T03:51:31.639Z,96727.50
2022-10-30T03:53:59.035Z,96731.31
2022-10-30T03:56:25.711Z,96729.38
2022-10-30T03:58:52.396Z,96731.50
2022-10-30T04:01:19.114Z,96727.63
2022-10-30T04:03:45.850Z,96724.88
2022-10-30T04:06:12.455Z,96726.97
2022-10-30T04:08:39.128Z,96727.47
2022-10-30T04:11:06.207Z,96725.72
2022-10-30T04:13:32.900Z,96725.13
2022-10-30T04:15:59.544Z,96728.19
2022-10-30T04:18:26.453Z,96725.13
2022-10-30T04:20:53.098Z,96720.75
2022-10-30T04:23:21.469Z,96716.16
2022-10-30T04:25:48.674Z,96722.00
2022-10-30T04:28:15.732Z,96716.59
2022-10-30T04:30:42.506Z,96718.00
2022-10-30T04:33:12.398Z,96717.91
2022-10-30T04:35:39.836Z,96715.03
2022-10-30T04:38:08.732Z,96716.59
2022-10-30T04:40:37.783Z,96710.13
2022-10-30T04:43:06.075Z,96712.91
2022-10-30T04:45:33.317Z,96716.50
2022-10-30T04:48:08.902Z,96717.28
2022-10-30T04:50:36.033Z,96711.47
2022-10-30T04:53:04.606Z,96708.28
2022-10-30T04:55:31.944Z,96705.59
2022-10-30T04:58:00.627Z,96702.63
2022-10-30T05:00:27.663Z,96706.19
2022-10-30T05:02:54.423Z,96697.81
2022-10-30T05:05:21.383Z,96695.13
2022-10-30T05:07:48.018Z,96694.66
2022-10-30T05:10:15.256Z,96687.69
2022-10-30T05:12:43.421Z,96694.59
2022-10-30T05:15:10.716Z,96691.41
2022-10-30T05:17:38.396Z,96690.81
2022-10-30T05:20:06.061Z,96687.44
2022-10-30T05:22:32.938Z,96685.28
2022-10-30T05:24:59.566Z,96684.25
2022-10-30T05:27:26.465Z,96682.59
2022-10-30T05:29:53.069Z,96681.00
2022-10-30T05:32:19.808Z,96677.84
2022-10-30T05:34:46.542Z,96684.00
2022-10-30T05:37:13.189Z,96685.81
2022-10-30T05:39:39.843Z,96681.44
2022-10-30T05:42:09.802Z,96685.22
2022-10-30T05:44:59.885Z,96676.97
2022-10-30T05:47:26.206Z,96679.47
2022-10-30T05:49:52.918Z,96685.22
2022-10-30T05:52:19.559Z,96685.00
2022-10-30T05:54:46.443Z,96686.03
2022-10-30T05:57:13.055Z,96681.66
2022-10-30T05:59:39.731Z,96679.25
2022-10-30T06:02:06.500Z,96674.22
2022-10-30T06:04:33.164Z,96678.44
2022-10-30T06:06:59.814Z,96684.84
2022-10-30T06:09:26.455Z,96672.91
2022-10-30T06:11:53.807Z,96682.06
2022-10-30T06:14:20.451Z,96676.09
2022-10-30T06:16:48.675Z,96684.69
2022-10-30T06:19:18.396Z,96687.41
2022-10-30T06:21:46.504Z,96682.75
2022-10-30T06:24:13.492Z,96687.97
2022-10-30T06:26:40.846Z,96685.28
2022-10-30T06:29:08.425Z,96692.25
2022-10-30T06:31:35.130Z,96687.31
2022-10-30T06:34:01.905Z,96696.31
2022-10-30T06:36:28.608Z,96679.75
2022-10-30T06:38:55.248Z,96682.56
2022-10-30T06:41:26.204Z,96682.69
2022-10-30T06:43:55.954Z,96686.56
2022-10-30T06:46:25.609Z,96677.59
2022-10-30T06:48:55.609Z,96674.94
2022-10-30T06:51:22.467Z,96677.53
2022-10-30T06:53:49.142Z,96680.72
2022-10-30T06:56:15.759Z,96680.66
2022-10-30T06:58:43.226Z,96678.94
2022-10-30T07:01:09.990Z,96672.94
2022-10-30T07:03:36.634Z,96671.16
2022-10-30T07:06:03.694Z,96672.66
2022-10-30T07:08:30.347Z,96668.19
2022-10-30T07:10:58.731Z,96676.38
2022-10-30T07:13:25.786Z,96676.09
2022-10-30T07:15:52.379Z,96677.38
2022-10-30T07:18:18.990Z,96677.19
2022-10-30T07:20:45.644Z,96682.78
2022-10-30T07:23:12.317Z,96685.56
2022-10-30T07:25:38.968Z,96690.66
2022-10-30T07:28:05.593Z,96689.19
2022-10-30T07:30:32.182Z,96687.88
2022-10-30T07:33:00.701Z,96699.47
2022-10-30T07:35:28.497Z,96693.22
2022-10-30T07:37:55.424Z,96700.66
2022-10-30T07:40:22.610Z,96692.34
2022-10-30T07:42:49.309Z,96694.88
2022-10-30T07:45:15.918Z,96687.44
2022-10-30T07:47:45.459Z,96692.00
2022-10-30T07:50:12.242Z,96690.81
2022-10-30T07:52:39.023Z,96688.16
2022-10-30T07:55:06.561Z,96691.47
2022-10-30T07:57:40.532Z,96692.34
2022-10-30T08:00:10.811Z,96690.50
2022-10-30T08:02:37.917Z,96684.41
2022-10-30T08:05:05.865Z,96687.03
2022-10-30T08:07:34.126Z,96686.78
2022-10-30T08:10:00.996Z,96686.81
2022-10-30T08:12:28.209Z,96681.66
2022-10-30T08:14:55.067Z,96682.91
2022-10-30T08:17:22.064Z,96677.81
2022-10-30T08:19:49.487Z,96679.84
2022-10-30T08:22:16.327Z,96679.69
2022-10-30T08:24:44.262Z,96670.56
2022-10-30T08:27:10.877Z,96667.78
2022-10-30T08:29:37.609Z,96667.44
2022-10-30T08:32:04.510Z,96663.75
2022-10-30T08:34:32.563Z,96670.22
2022-10-30T08:37:00.177Z,96670.03
2022-10-30T08:39:26.848Z,96663.81
2022-10-30T08:41:53.469Z,96661.34
2022-10-30T08:44:20.093Z,96664.09
2022-10-30T08:46:46.672Z,96654.28
2022-10-30T08:49:13.308Z,96662.91
2022-10-30T08:51:39.902Z,96665.59
2022-10-30T08:54:06.510Z,96653.22
2022-10-30T08:56:33.084Z,96650.31
2022-10-30T08:58:59.801Z,96650.91
2022-10-30T09:01:26.835Z,96641.25
2022-10-30T09:03:53.653Z,96657.47
2022-10-30T09:06:20.272Z,96652.59
2022-10-30T09:08:46.961Z,96648.19
2022-10-30T09:11:13.577Z,96654.09
2022-10-30T09:13:40.193Z,96649.34
2022-10-30T09:16:13.261Z,96652.75
2022-10-30T09:18:39.960Z,96642.72
2022-10-30T09:21:06.629Z,96648.38
2022-10-30T09:23:33.323Z,96639.25
2022-10-30T09:26:00.012Z,96639.66
2022-10-30T09:28:26.594Z,96643.16
2022-10-30T09:30:56.517Z,96641.13
2022-10-30T09:33:23.717Z,96639.25
2022-10-30T09:35:50.583Z,96640.06
2022-10-30T09:38:17.208Z,96639.09
2022-10-30T09:40:46.613Z,96635.78
2022-10-30T09:43:41.708Z,96636.91
2022-10-30T09:46:37.890Z,96629.03
2022-10-30T09:49:17.847Z,96631.78
2022-10-30T09:51:47.123Z,96634.34
2022-10-30T09:54:41.704Z,96628.63
2022-10-30T09:57:41.319Z,96629.97
2022-10-30T10:00:12.148Z,96630.81
2022-10-30T10:02:52.246Z,96624.22
2022-10-30T10:05:49.031Z,96625.50
2022-10-30T10:08:48.290Z,96629.31
2022-10-30T10:11:23.242Z,96627.53
2022-10-30T10:14:13.780Z,96619.19
2022-10-30T10:16:42.894Z,96618.13
2022-10-30T10:19:20.749Z,96616.28
2022-10-30T10:22:01.277Z,96615.72
2022-10-30T10:24:38.862Z,96618.25
2022-10-30T10:27:27.922Z,96629.19
2022-10-30T10:30:20.259Z,96622.56
2022-10-30T10:33:33.102Z,96611.78
2022-10-30T10:36:11.231Z,96618.59
2022-10-30T10:38:56.107Z,96617.50
2022-10-30T10:41:37.949Z,96608.97
2022-10-30T10:44:25.314Z,96606.28
2022-10-30T10:47:18.727Z,96605.78
2022-10-30T10:49:57.089Z,96602.75
2022-10-30T10:52:37.345Z,96602.09
2022-10-30T10:55:10.546Z,96607.28
2022-10-30T10:57:40.815Z,96600.91
2022-10-30T11:00:17.352Z,96598.91
2022-10-30T11:03:04.506Z,96594.81
2022-10-30T11:05:55.042Z,96604.44
2022-10-30T11:08:27.523Z,96593.63
2022-10-30T11:10:58.547Z,96593.63
2022-10-30T11:13:29.102Z,96596.00
2022-10-30T11:16:14.350Z,96595.03
2022-10-30T11:18:42.347Z,96592.31
2022-10-30T11:21:18.710Z,96581.91
2022-10-30T11:23:49.271Z,96589.09
2022-10-30T11:26:18.883Z,96594.81
2022-10-30T11:28:57.058Z,96589.34
2022-10-30T11:31:34.272Z,96589.78
2022-10-30T11:34:14.215Z,96585.09
2022-10-30T11:36:40.889Z,96583.47
2022-10-30T11:39:32.381Z,96578.38
2022-10-30T11:42:13.609Z,96567.84
2022-10-30T11:44:42.998Z,96575.16
2022-10-30T11:47:11.942Z,96564.66
2022-10-30T11:49:55.137Z,96565.50
2022-10-30T11:52:23.710Z,96552.28
2022-10-30T11:55:28.984Z,96555.91
2022-10-30T11:57:58.089Z,96555.34
2022-10-30T12:00:27.990Z,96554.91
2022-10-30T12:02:57.216Z,96556.31
2022-10-30T12:05:41.656Z,96543.25
2022-10-30T12:08:10.352Z,96550.25
2022-10-30T12:10:52.576Z,96545.63
2022-10-30T12:13:21.705Z,96536.84
2022-10-30T12:15:51.285Z,96543.50
2022-10-30T12:18:22.738Z,96544.31
2022-10-30T12:20:53.763Z,96549.97
2022-10-30T12:23:24.857Z,96540.81
2022-10-30T12:25:58.747Z,96536.75
2022-10-30T12:28:34.923Z,96530.22
2022-10-30T12:31:08.765Z,96528.94
2022-10-30T12:33:39.962Z,96529.81
2022-10-30T12:36:13.882Z,96536.06
2022-10-30T12:38:45.849Z,96535.06
2022-10-30T12:41:40.327Z,96536.28
2022-10-30T12:44:21.932Z,96527.78
2022-10-30T12:46:54.878Z,96513.69
2022-10-30T12:49:39.874Z,96515.56
2022-10-30T12:52:18.646Z,96512.94
2022-10-30T12:54:48.373Z,96514.75
2022-10-30T12:57:41.068Z,96509.69
2022-10-30T13:00:16.172Z,96505.03
2022-10-30T13:02:56.393Z,96507.50
2022-10-30T13:05:45.856Z,96506.91
2022-10-30T13:08:39.205Z,96505.22
2022-10-30T13:11:24.145Z,96511.34
2022-10-30T13:13:53.058Z,96504.91
2022-10-30T13:16:26.246Z,96507.91
2022-10-30T13:18:56.637Z,96507.59
2022-10-30T13:21:42.000Z,96513.50
2022-10-30T13:24:18.092Z,96510.00
2022-10-30T13:26:53.478Z,96514.28
2022-10-30T13:29:50.857Z,96506.13
2022-10-30T13:32:26.791Z,96499.41
2022-10-30T13:35:25.476Z,96490.25
2022-10-30T13:38:04.261Z,96498.50
2022-10-30T13:40:50.902Z,96501.69
2022-10-30T13:43:30.276Z,96498.97
2022-10-30T13:46:11.820Z,96503.75
2022-10-30T13:49:16.902Z,96498.38
2022-10-30T13:51:49.275Z,96498.84
2022-10-30T13:54:21.911Z,96491.28
2022-10-30T13:56:50.591Z,96503.31
2022-10-30T13:59:44.994Z,96497.44
2022-10-30T14:02:35.872Z,96491.84
2022-10-30T14:05:25.419Z,96496.63
2022-10-30T14:11:05.849Z,96502.50
2022-10-30T14:13:35.221Z,96500.13
2022-10-30T14:16:05.039Z,96507.19
2022-10-30T14:18:59.499Z,96499.31
2022-10-30T14:21:42.465Z,96500.44
2022-10-30T14:24:19.088Z,96497.63
2022-10-30T14:26:53.122Z,96500.75
2022-10-30T14:29:35.588Z,96500.66
2022-10-30T14:32:11.941Z,96500.88
2022-10-30T14:34:50.453Z,96506.06
2022-10-30T14:37:22.881Z,96502.94
2022-10-30T14:39:51.601Z,96505.66
2022-10-30T14:42:25.965Z,96509.78
2022-10-30T14:45:09.136Z,96496.44
2022-10-30T14:47:57.609Z,96510.00
2022-10-30T14:50:26.998Z,96506.50
2022-10-30T14:53:43.043Z,96498.69
2022-10-30T14:59:12.671Z,96496.81
2022-10-30T15:02:21.203Z,96500.06
2022-10-30T15:05:07.131Z,96501.22
2022-10-30T15:08:05.889Z,96496.91
2022-10-30T15:10:36.175Z,96499.19
2022-10-30T15:13:21.729Z,96498.84
2022-10-30T15:16:00.470Z,96491.78
2022-10-30T15:18:30.588Z,96492.50
2022-10-30T15:21:05.929Z,96495.25
2022-10-30T15:23:37.253Z,96488.97
2022-10-30T15:26:09.855Z,96489.72
2022-10-30T15:28:37.218Z,96484.34
2022-10-30T15:31:07.258Z,96487.34
2022-10-30T15:33:38.118Z,96485.75
2022-10-30T15:36:05.823Z,96491.97
2022-10-30T15:38:32.735Z,96495.78
2022-10-30T15:41:02.832Z,96494.25
2022-10-30T15:43:35.885Z,96492.69
2022-10-30T15:46:08.716Z,96492.56
2022-10-30T15:48:37.078Z,96491.72
2022-10-30T15:51:19.762Z,96500.34
2022-10-30T15:54:01.619Z,96494.75
2022-10-30T15:57:08.231Z,96493.16
2022-10-30T15:59:33.806Z,96492.13
2022-10-30T16:02:00.518Z,96497.88
2022-10-30T16:04:32.654Z,96491.91
2022-10-30T16:07:01.194Z,96489.47
2022-10-30T16:09:28.981Z,96495.59
2022-10-30T16:11:59.821Z,96497.91
2022-10-30T16:14:29.304Z,96490.72
2022-10-30T16:17:00.201Z,96491.38
2022-10-30T16:19:29.994Z,96499.41
2022-10-30T16:21:58.699Z,96493.75
2022-10-30T16:24:35.537Z,96499.88
2022-10-30T16:27:07.774Z,96510.25
2022-10-30T16:29:35.685Z,96504.13
2022-10-30T16:32:02.802Z,96500.63
2022-10-30T16:34:37.854Z,96500.19
2022-10-30T16:37:06.865Z,96500.72
2022-10-30T16:39:35.030Z,96504.00
2022-10-30T16:42:02.763Z,96508.09
2022-10-30T16:44:31.428Z,96511.09
2022-10-30T16:47:04.053Z,96502.84
2022-10-30T16:49:34.718Z,96513.22
2022-10-30T16:52:13.013Z,96506.44
2022-10-30T16:54:42.045Z,96511.16
2022-10-30T16:57:18.033Z,96511.00
2022-10-30T16:59:48.277Z,96515.06
2022-10-30T17:02:19.602Z,96508.16
2022-10-30T17:04:53.889Z,96517.72
2022-10-30T17:07:26.164Z,96521.78
2022-10-30T17:09:55.673Z,96516.56
2022-10-30T17:12:27.761Z,96517.78
2022-10-30T17:15:02.173Z,96523.34
2022-10-30T17:17:40.134Z,96527.09
2022-10-30T17:20:28.207Z,96527.72
2022-10-30T17:23:18.409Z,96529.19
2022-10-30T17:25:45.514Z,96529.28
2022-10-30T17:28:27.330Z,96530.59
2022-10-30T17:30:54.289Z,96537.34
2022-10-30T17:33:32.057Z,96541.13
2022-10-30T17:35:58.748Z,96538.50
2022-10-30T17:38:25.328Z,96538.09
2022-10-30T17:40:52.069Z,96546.81
2022-10-30T17:43:18.818Z,96537.72
2022-10-30T17:45:46.105Z,96541.41
2022-10-30T17:48:17.008Z,96547.69
2022-10-30T17:50:44.447Z,96548.28
2022-10-30T17:53:18.555Z,96546.72
2022-10-30T17:55:51.660Z,96550.25
2022-10-30T17:58:21.045Z,96553.34
2022-10-30T18:00:47.660Z,96553.91
2022-10-30T18:03:14.331Z,96559.25
2022-10-30T18:05:42.424Z,96563.00
2022-10-30T18:08:09.034Z,96562.91
2022-10-30T18:10:35.677Z,96562.56
2022-10-30T18:13:02.637Z,96563.94
2022-10-30T18:15:35.828Z,96567.72
2022-10-30T18:18:03.617Z,96566.03
2022-10-30T18:20:30.525Z,96565.69
2022-10-30T18:22:58.001Z,96569.66
2022-10-30T18:25:27.618Z,96559.47
2022-10-30T18:27:54.446Z,96572.63
2022-10-30T18:30:21.720Z,96567.84
2022-10-30T18:32:48.930Z,96566.00
2022-10-30T18:35:25.081Z,96568.59
2022-10-30T18:37:52.281Z,96571.09
2022-10-30T18:40:21.827Z,96573.25
2022-10-30T18:42:49.365Z,96568.00
2022-10-30T18:45:20.918Z,96567.44
2022-10-30T18:47:48.181Z,96574.78
2022-10-30T18:50:15.334Z,96567.06
2022-10-30T18:52:42.269Z,96577.84
2022-10-30T18:55:39.114Z,96575.56
2022-10-30T18:58:07.051Z,96580.09
2022-10-30T19:00:44.928Z,96578.63
2022-10-30T19:03:21.610Z,96583.50
2022-10-30T19:05:51.055Z,96578.63
2022-10-30T19:08:17.998Z,96587.88
2022-10-30T19:10:46.802Z,96586.63
2022-10-30T19:13:19.743Z,96583.13
2022-10-30T19:15:48.062Z,96588.16
2022-10-30T19:18:15.340Z,96584.72
2022-10-30T19:21:03.280Z,96585.97
2022-10-30T19:23:28.575Z,96579.13
2022-10-30T19:25:55.256Z,96588.66
2022-10-30T19:28:22.085Z,96586.13
2022-10-30T19:30:50.811Z,96580.56
2022-10-30T19:33:18.549Z,96587.31
2022-10-30T19:35:45.475Z,96582.53
2022-10-30T19:38:13.590Z,96580.38
2022-10-30T19:40:41.207Z,96583.75
2022-10-30T19:43:07.778Z,96588.69
2022-10-30T19:45:34.584Z,96587.75
2022-10-30T19:48:06.641Z,96585.81
2022-10-30T19:50:40.175Z,96592.16
2022-10-30T19:53:07.916Z,96593.31
2022-10-30T19:55:37.889Z,96590.16
2022-10-30T19:58:05.819Z,96595.38
2022-10-30T20:00:37.832Z,96592.84
2022-10-30T20:03:06.540Z,96590.00
2022-10-30T20:05:39.554Z,96590.53
2022-10-30T20:08:06.138Z,96589.63
2022-10-30T20:10:36.740Z,96602.88
2022-10-30T20:13:07.994Z,96597.44
2022-10-30T20:15:35.259Z,96591.25
2022-10-30T20:18:03.523Z,96602.56
2022-10-30T20:20:34.805Z,96594.28
2022-10-30T20:23:02.093Z,96594.44
2022-10-30T20:25:28.744Z,96597.94
2022-10-30T20:28:06.706Z,96597.94
2022-10-30T20:30:33.800Z,96599.41
2022-10-30T20:33:00.778Z,96601.97
2022-10-30T20:35:27.648Z,96603.88
2022-10-30T20:38:02.597Z,96612.00
2022-10-30T20:40:30.474Z,96611.69
2022-10-30T20:43:02.657Z,96606.75
2022-10-30T20:45:29.936Z,96616.94
2022-10-30T20:47:56.801Z,96605.66
2022-10-30T20:50:23.652Z,96605.16
2022-10-30T20:52:50.247Z,96608.97
2022-10-30T20:55:17.138Z,96616.28
2022-10-30T20:57:43.841Z,96614.97
2022-10-30T21:00:12.397Z,96616.59
2022-10-30T21:02:39.209Z,96614.38
2022-10-30T21:05:11.840Z,96617.53
2022-10-30T21:07:50.279Z,96618.03
2022-10-30T21:10:17.033Z,96618.81
2022-10-30T21:12:43.703Z,96611.81
2022-10-30T21:15:10.544Z,96619.44
2022-10-30T21:17:37.138Z,96622.81
2022-10-30T21:20:03.961Z,96616.13
2022-10-30T21:22:30.557Z,96616.44
2022-10-30T21:24:57.177Z,96621.22
2022-10-30T21:27:23.773Z,96617.53
2022-10-30T21:29:50.483Z,96623.59
2022-10-30T21:32:17.050Z,96612.91
2022-10-30T21:34:43.667Z,96618.16
2022-10-30T21:37:10.264Z,96621.66
2022-10-30T21:39:36.926Z,96628.97
2022-10-30T21:42:03.673Z,96626.56
2022-10-30T21:44:30.347Z,96625.47
2022-10-30T21:46:56.940Z,96626.75
2022-10-30T21:49:23.557Z,96624.66
2022-10-30T21:51:50.825Z,96628.16
2022-10-30T21:54:19.182Z,96622.91
2022-10-30T21:56:46.509Z,96624.50
2022-10-30T21:59:13.720Z,96628.97
2022-10-30T22:01:41.485Z,96630.84
2022-10-30T22:04:10.598Z,96624.31
2022-10-30T22:06:44.611Z,96617.78
2022-10-30T22:09:15.453Z,96628.88
2022-10-30T22:11:42.242Z,96623.97
2022-10-30T22:14:08.991Z,96622.53
2022-10-30T22:16:37.958Z,96625.72
2022-10-30T22:19:06.786Z,96616.78
2022-10-30T22:21:34.013Z,96622.19
2022-10-30T22:24:02.061Z,96615.34
2022-10-30T22:26:29.591Z,96621.88
2022-10-30T22:28:58.981Z,96619.47
2022-10-30T22:31:27.199Z,96622.81
2022-10-30T22:33:53.943Z,96622.75
2022-10-30T22:36:26.150Z,96626.75
2022-10-30T22:38:59.710Z,96625.44
2022-10-30T22:41:28.672Z,96621.59
2022-10-30T22:43:58.870Z,96615.81
2022-10-30T22:46:28.153Z,96624.56
2022-10-30T22:48:55.622Z,96623.63
2022-10-30T22:51:22.482Z,96627.81
2022-10-30T22:53:59.888Z,96625.59
2022-10-30T22:56:28.931Z,96625.19
2022-10-30T22:58:56.542Z,96627.06
2022-10-30T23:01:28.816Z,96630.28
2022-10-30T23:03:57.764Z,96629.91
2022-10-30T23:06:24.602Z,96633.50
2022-10-30T23:08:56.101Z,96632.44
2022-10-30T23:11:23.865Z,96628.88
2022-10-30T23:13:50.616Z,96632.44
2022-10-30T23:16:20.441Z,96627.66
2022-10-30T23:18:48.170Z,96627.06
2022-10-30T23:21:21.437Z,96626.44
2022-10-30T23:23:48.528Z,96620.16
2022-10-30T23:26:23.654Z,96628.22
2022-10-30T23:28:53.095Z,96632.44
2022-10-30T23:31:30.189Z,96630.56
2022-10-30T23:33:58.934Z,96631.53
2022-10-30T23:36:26.042Z,96622.16
2022-10-30T23:38:54.365Z,96633.56
2022-10-30T23:41:25.801Z,96636.41
2022-10-30T23:44:00.454Z,96628.09
2022-10-30T23:46:27.650Z,96635.19
2022-10-30T23:48:54.626Z,96634.56
2022-10-30T23:51:21.858Z,96627.28
2022-10-30T23:53:48.921Z,96634.88
2022-10-30T23:56:16.360Z,96631.56
2022-10-30T23:58:47.337Z,96629.25
